KGZN

Gregory M Simmons Memorial Airport

Cisco, Texas, USA
METAR KGZN 120940Z AUTO 20010G17KT 10SM CLR 08/05 A3000 RMK AO2
Observed Flight Rules
Dec-12 @ 09:40 UTC (45 minutes ago) Visual Flight Rules
Wind Visibility Clouds
200° at 10 knots
 Gusting to 17 knots
10 miles
  • Clear skies
Temperatures Readings
Current 8°C / 46°F
Dewpoint 5°C / 41°F
Humidity 82%
Altimeter 30" Hg
Pressure 1016 hPa
Elevation 522
METAR KGZN 120940Z AUTO 20010G17KT 10SM CLR 08/05 A3000 RMK AO2
Observed Flight Rules
Dec-12 @ 09:40 UTC
(45 minutes ago)
VFR
Wind Visibility
200° at 10 knots
 Gusting to 17 knots
10 miles
Clouds
  • Clear skies
Temperature Dewpoint
8°C / 46°F 5°C / 41°F
Humidity Altimeter Pressure
82% 30" Hg 1016 hPa